createdAt,value
2023-06-15T00:00:03.017Z,18.04
2023-06-15T00:02:31.302Z,18.02
2023-06-15T00:04:59.450Z,17.99
2023-06-15T00:07:27.552Z,17.89
2023-06-15T00:09:56.951Z,17.85
2023-06-15T00:12:25.825Z,17.84
2023-06-15T00:14:53.809Z,17.80
2023-06-15T00:17:24.068Z,17.74
2023-06-15T00:22:31.489Z,17.72
2023-06-15T00:24:59.660Z,17.62
2023-06-15T00:27:27.810Z,17.59
2023-06-15T00:29:55.880Z,17.56
2023-06-15T00:32:23.970Z,17.49
2023-06-15T00:34:52.112Z,17.45
2023-06-15T00:37:20.337Z,17.43
2023-06-15T00:39:48.444Z,17.40
2023-06-15T00:42:16.546Z,17.35
2023-06-15T00:44:44.613Z,17.32
2023-06-15T00:47:12.853Z,17.25
2023-06-15T00:49:41.085Z,17.21
2023-06-15T00:52:09.616Z,17.19
2023-06-15T00:54:37.954Z,17.17
2023-06-15T00:57:06.200Z,17.15
2023-06-15T00:59:34.532Z,17.12
2023-06-15T01:02:02.640Z,17.09
2023-06-15T01:04:30.665Z,17.06
2023-06-15T01:07:04.491Z,17.04
2023-06-15T01:09:33.986Z,16.98
2023-06-15T01:12:03.304Z,16.94
2023-06-15T01:14:31.498Z,16.96
2023-06-15T01:17:01.221Z,16.93
2023-06-15T01:20:00.901Z,16.89
2023-06-15T01:22:37.385Z,16.87
2023-06-15T01:25:13.214Z,16.84
2023-06-15T01:27:41.931Z,16.83
2023-06-15T01:30:10.442Z,16.79
2023-06-15T01:32:38.548Z,16.75
2023-06-15T01:35:07.160Z,16.73
2023-06-15T01:37:35.246Z,16.72
2023-06-15T01:40:03.396Z,16.71
2023-06-15T01:42:31.436Z,16.69
2023-06-15T01:45:00.657Z,16.64
2023-06-15T01:47:29.498Z,16.61
2023-06-15T01:49:57.610Z,16.57
2023-06-15T01:52:25.840Z,16.52
2023-06-15T01:54:54.052Z,16.54
2023-06-15T01:57:22.857Z,16.57
2023-06-15T01:59:50.907Z,16.52
2023-06-15T02:02:19.068Z,16.51
2023-06-15T02:04:47.363Z,16.51
2023-06-15T02:07:15.646Z,16.47
2023-06-15T02:09:43.806Z,16.47
2023-06-15T02:12:12.487Z,16.47
2023-06-15T02:14:40.672Z,16.43
2023-06-15T02:17:08.951Z,16.41
2023-06-15T02:19:37.920Z,16.39
2023-06-15T02:22:06.260Z,16.41
2023-06-15T02:24:34.333Z,16.42
2023-06-15T02:27:02.464Z,16.40
2023-06-15T02:29:30.572Z,16.41
2023-06-15T02:31:58.551Z,16.37
2023-06-15T02:34:29.632Z,16.36
2023-06-15T02:36:58.519Z,16.33
2023-06-15T02:39:26.848Z,16.33
2023-06-15T02:41:54.993Z,16.34
2023-06-15T02:44:24.087Z,16.35
2023-06-15T02:46:52.198Z,16.37
2023-06-15T02:49:21.459Z,16.36
2023-06-15T02:51:49.513Z,16.37
2023-06-15T02:54:17.798Z,16.36
2023-06-15T02:56:46.162Z,16.35
2023-06-15T02:59:14.288Z,16.38
2023-06-15T03:01:43.702Z,16.34
2023-06-15T03:04:12.419Z,16.35
2023-06-15T03:06:40.818Z,16.34
2023-06-15T03:09:09.848Z,16.31
2023-06-15T03:11:37.910Z,16.25
2023-06-15T03:14:06.140Z,16.29
2023-06-15T03:16:41.695Z,16.25
2023-06-15T03:19:09.833Z,16.22
2023-06-15T03:21:39.946Z,16.19
2023-06-15T03:24:10.754Z,16.17
2023-06-15T03:26:39.378Z,16.16
2023-06-15T03:29:07.422Z,16.13
2023-06-15T03:31:43.242Z,16.08
2023-06-15T03:34:11.769Z,16.06
2023-06-15T03:36:39.868Z,15.99
2023-06-15T03:39:09.209Z,16.00
2023-06-15T03:41:39.697Z,15.97
2023-06-15T03:44:07.758Z,15.95
2023-06-15T03:46:35.809Z,15.96
2023-06-15T03:49:04.058Z,15.95
2023-06-15T03:51:32.246Z,16.00
2023-06-15T03:54:00.291Z,16.00
2023-06-15T03:56:28.418Z,16.03
2023-06-15T03:58:56.512Z,16.05
2023-06-15T04:01:28.278Z,16.06
2023-06-15T04:03:56.632Z,16.06
2023-06-15T04:06:24.806Z,16.09
2023-06-15T04:08:55.161Z,16.11
2023-06-15T04:11:24.501Z,16.09
2023-06-15T04:13:52.794Z,16.08
2023-06-15T04:16:21.072Z,16.09
2023-06-15T04:18:49.099Z,16.09
2023-06-15T04:21:17.177Z,16.13
2023-06-15T04:23:45.808Z,16.20
2023-06-15T04:26:13.855Z,16.24
2023-06-15T04:28:41.963Z,16.25
2023-06-15T04:31:24.279Z,16.29
2023-06-15T04:33:52.366Z,16.34
2023-06-15T04:36:20.507Z,16.37
2023-06-15T04:38:48.859Z,16.40
2023-06-15T04:41:17.357Z,16.40
2023-06-15T04:43:45.620Z,16.40
2023-06-15T04:46:13.898Z,16.42
2023-06-15T04:48:46.165Z,16.46
2023-06-15T04:51:14.429Z,16.54
2023-06-15T04:53:45.095Z,16.59
2023-06-15T04:56:13.572Z,16.63
2023-06-15T04:58:41.881Z,16.69
2023-06-15T05:01:09.914Z,16.72
2023-06-15T05:03:37.990Z,16.75
2023-06-15T05:06:06.134Z,16.86
2023-06-15T05:08:35.660Z,16.94
2023-06-15T05:11:04.012Z,17.00
2023-06-15T05:13:32.791Z,17.06
2023-06-15T05:16:00.924Z,17.09
2023-06-15T05:18:29.325Z,17.15
2023-06-15T05:20:58.262Z,17.21
2023-06-15T05:23:26.378Z,17.28
2023-06-15T05:25:54.515Z,17.33
2023-06-15T05:28:22.687Z,17.38
2023-06-15T05:30:50.812Z,17.42
2023-06-15T05:33:20.432Z,17.50
2023-06-15T05:35:48.736Z,17.56
2023-06-15T05:38:16.901Z,17.57
2023-06-15T05:40:45.024Z,17.64
2023-06-15T05:43:13.263Z,17.67
2023-06-15T05:45:41.473Z,17.71
2023-06-15T05:48:09.491Z,17.72
2023-06-15T05:50:38.642Z,17.73
2023-06-15T05:53:06.776Z,17.74
2023-06-15T05:55:35.792Z,17.78
2023-06-15T05:58:03.941Z,17.80
2023-06-15T06:00:33.205Z,17.86
2023-06-15T06:03:01.450Z,18.03
2023-06-15T06:05:29.554Z,18.14
2023-06-15T06:07:57.682Z,18.25
2023-06-15T06:10:25.749Z,18.34
2023-06-15T06:12:54.744Z,18.34
2023-06-15T06:15:22.975Z,18.41
2023-06-15T06:18:07.701Z,18.56
2023-06-15T06:20:38.363Z,18.53
2023-06-15T06:23:06.691Z,18.57
2023-06-15T06:25:35.013Z,18.62
2023-06-15T06:28:02.983Z,18.69
2023-06-15T06:30:31.719Z,18.77
2023-06-15T06:33:01.636Z,18.82
2023-06-15T06:35:30.248Z,18.85
2023-06-15T06:37:58.364Z,18.88
2023-06-15T06:40:28.300Z,18.92
2023-06-15T06:42:56.399Z,18.98
2023-06-15T06:45:25.605Z,19.01
2023-06-15T06:47:55.763Z,18.97
2023-06-15T06:50:23.864Z,19.06
2023-06-15T06:52:51.842Z,19.09
2023-06-15T06:55:20.341Z,19.22
2023-06-15T06:57:48.678Z,19.35
2023-06-15T07:00:18.086Z,19.45
2023-06-15T07:02:46.546Z,19.53
2023-06-15T07:05:14.725Z,19.59
2023-06-15T07:07:43.093Z,19.70
2023-06-15T07:10:11.289Z,19.74
2023-06-15T07:12:39.610Z,19.85
2023-06-15T07:15:08.586Z,19.97
2023-06-15T07:17:37.007Z,20.04
2023-06-15T07:20:05.641Z,20.07
2023-06-15T07:22:33.785Z,20.16
2023-06-15T07:25:02.047Z,20.25
2023-06-15T07:27:30.292Z,20.33
2023-06-15T07:29:58.430Z,20.32
2023-06-15T07:32:26.503Z,20.29
2023-06-15T07:34:54.793Z,20.31
2023-06-15T07:37:22.895Z,20.35
2023-06-15T07:39:51.130Z,20.40
2023-06-15T07:42:19.441Z,20.54
2023-06-15T07:44:47.789Z,20.67
2023-06-15T07:47:15.940Z,20.76
2023-06-15T07:49:46.721Z,20.82
2023-06-15T07:52:15.646Z,20.98
2023-06-15T07:54:44.283Z,21.04
2023-06-15T07:57:12.441Z,21.15
2023-06-15T07:59:40.607Z,21.18
2023-06-15T08:02:09.167Z,21.38
2023-06-15T08:04:37.209Z,21.51
2023-06-15T08:07:05.820Z,21.64
2023-06-15T08:09:33.944Z,21.77
2023-06-15T08:12:03.747Z,21.92
2023-06-15T08:14:31.890Z,21.96
2023-06-15T08:17:00.073Z,21.91
2023-06-15T08:19:28.321Z,22.11
2023-06-15T08:21:56.671Z,22.23
2023-06-15T08:24:27.619Z,22.35
2023-06-15T08:26:57.397Z,22.60
2023-06-15T08:29:25.492Z,22.82
2023-06-15T08:31:53.985Z,22.99
2023-06-15T08:34:22.425Z,23.10
2023-06-15T08:36:51.782Z,23.20
2023-06-15T08:39:19.957Z,23.30
2023-06-15T08:41:49.302Z,23.45
2023-06-15T08:44:17.484Z,23.64
2023-06-15T08:46:45.587Z,23.72
2023-06-15T08:49:13.642Z,23.83
2023-06-15T08:51:42.296Z,23.96
2023-06-15T08:54:11.307Z,24.02
2023-06-15T08:56:40.716Z,24.10
2023-06-15T08:59:09.243Z,24.20
2023-06-15T09:01:42.189Z,24.44
2023-06-15T09:04:10.440Z,24.47
2023-06-15T09:06:38.543Z,24.51
2023-06-15T09:09:07.456Z,24.66
2023-06-15T09:11:42.945Z,24.87
2023-06-15T09:14:12.064Z,25.02
2023-06-15T09:16:40.969Z,25.04
2023-06-15T09:19:13.732Z,25.14
2023-06-15T09:21:43.925Z,25.31
2023-06-15T09:24:12.575Z,25.34
2023-06-15T09:26:43.442Z,25.38
2023-06-15T09:29:13.160Z,25.33
2023-06-15T09:31:43.297Z,25.29
2023-06-15T09:34:14.741Z,25.38
2023-06-15T09:36:49.298Z,25.57
2023-06-15T09:39:18.652Z,25.78
2023-06-15T09:42:04.036Z,25.96
2023-06-15T09:44:32.178Z,26.02
2023-06-15T09:47:02.545Z,26.16
2023-06-15T09:49:31.012Z,26.26
2023-06-15T09:51:59.508Z,26.45
2023-06-15T09:54:30.748Z,26.48
2023-06-15T09:56:59.866Z,26.47
2023-06-15T09:59:28.026Z,26.53
2023-06-15T10:01:59.323Z,26.61
2023-06-15T10:04:28.654Z,26.63
2023-06-15T10:07:06.264Z,26.79
2023-06-15T10:09:42.762Z,26.87
2023-06-15T10:12:19.154Z,26.97
2023-06-15T10:15:13.672Z,27.03
2023-06-15T10:17:43.639Z,27.02
2023-06-15T10:20:13.959Z,26.89
2023-06-15T10:22:50.938Z,26.91
2023-06-15T10:25:19.259Z,27.04
2023-06-15T10:27:47.458Z,27.12
2023-06-15T10:30:21.772Z,27.29
2023-06-15T10:33:22.426Z,27.39
2023-06-15T10:35:56.518Z,27.55
2023-06-15T10:38:42.646Z,27.50
2023-06-15T10:41:10.960Z,27.45
2023-06-15T10:43:39.059Z,27.50
2023-06-15T10:46:09.115Z,27.58
2023-06-15T10:48:40.866Z,27.69
2023-06-15T10:51:11.562Z,27.87
2023-06-15T10:53:44.901Z,28.03
2023-06-15T10:56:23.382Z,28.05
2023-06-15T10:59:01.924Z,28.07
2023-06-15T11:01:31.671Z,28.20
2023-06-15T11:04:00.155Z,28.22
2023-06-15T11:06:39.098Z,28.30
2023-06-15T11:09:09.180Z,28.32
2023-06-15T11:11:37.674Z,28.24
2023-06-15T11:14:09.898Z,28.20
2023-06-15T11:16:38.941Z,28.35
2023-06-15T11:19:13.196Z,28.36
2023-06-15T11:21:47.436Z,28.51
2023-06-15T11:24:16.414Z,28.27
2023-06-15T11:26:51.424Z,28.04
2023-06-15T11:29:25.075Z,27.90
2023-06-15T11:31:53.249Z,28.02
2023-06-15T11:34:21.468Z,28.28
2023-06-15T11:36:50.257Z,28.37
2023-06-15T11:39:23.059Z,28.35
2023-06-15T11:41:53.011Z,28.04
2023-06-15T11:44:24.361Z,28.01
2023-06-15T11:47:01.092Z,27.69
2023-06-15T11:49:36.724Z,27.57
2023-06-15T11:52:08.076Z,27.63
2023-06-15T11:57:08.479Z,27.46
2023-06-15T11:59:38.147Z,27.63
2023-06-15T12:02:06.524Z,27.87
2023-06-15T12:04:34.710Z,27.94
2023-06-15T12:07:07.409Z,28.16
2023-06-15T12:09:35.486Z,28.30
2023-06-15T12:12:03.648Z,28.52
2023-06-15T12:14:31.846Z,28.55
2023-06-15T12:17:00.068Z,28.69
2023-06-15T12:19:28.710Z,28.90
2023-06-15T12:22:00.371Z,28.97
2023-06-15T12:24:28.691Z,29.05
2023-06-15T12:27:00.617Z,29.14
2023-06-15T12:29:28.985Z,29.31
2023-06-15T12:31:57.680Z,29.42
2023-06-15T12:34:27.449Z,29.44
2023-06-15T12:36:56.833Z,29.55
2023-06-15T12:39:29.918Z,29.46
2023-06-15T12:42:04.003Z,29.54
2023-06-15T12:44:34.338Z,29.50
2023-06-15T12:47:02.511Z,29.29
2023-06-15T12:49:30.722Z,28.86
2023-06-15T12:51:58.825Z,28.62
2023-06-15T12:54:26.996Z,28.77
2023-06-15T12:56:55.195Z,28.87
2023-06-15T12:59:23.328Z,29.08
2023-06-15T13:01:51.557Z,29.10
2023-06-15T13:04:20.328Z,28.98
2023-06-15T13:06:48.558Z,29.12
2023-06-15T13:09:16.890Z,29.14
2023-06-15T13:11:44.945Z,29.23
2023-06-15T13:14:13.162Z,29.38
2023-06-15T13:16:41.336Z,29.41
2023-06-15T13:19:10.740Z,29.40
2023-06-15T13:21:38.839Z,29.17
2023-06-15T13:24:07.232Z,29.11
2023-06-15T13:26:35.403Z,29.21
2023-06-15T13:29:03.529Z,29.06
2023-06-15T13:31:31.619Z,29.12
2023-06-15T13:33:59.708Z,29.24
2023-06-15T13:36:28.371Z,29.27
2023-06-15T13:38:56.769Z,29.24
2023-06-15T13:41:25.040Z,29.34
2023-06-15T13:43:55.992Z,29.14
2023-06-15T13:46:24.488Z,29.19
2023-06-15T13:48:52.957Z,29.14
2023-06-15T13:51:21.577Z,29.15
2023-06-15T13:53:49.811Z,29.04
2023-06-15T13:56:18.555Z,28.73
2023-06-15T13:58:47.046Z,28.42
2023-06-15T14:01:15.401Z,28.19
2023-06-15T14:03:44.157Z,28.07
2023-06-15T14:06:12.743Z,27.98
2023-06-15T14:08:41.205Z,28.01
2023-06-15T14:11:09.555Z,27.91
2023-06-15T14:13:39.092Z,27.85
2023-06-15T14:16:10.553Z,27.65
2023-06-15T14:18:39.270Z,27.53
2023-06-15T14:21:07.799Z,27.49
2023-06-15T14:23:36.837Z,27.48
2023-06-15T14:26:05.745Z,27.45
2023-06-15T14:28:35.440Z,27.35
2023-06-15T14:31:03.775Z,27.27
2023-06-15T14:33:32.273Z,27.24
2023-06-15T14:36:00.801Z,27.27
2023-06-15T14:38:29.562Z,27.14
2023-06-15T14:40:57.789Z,27.03
2023-06-15T14:43:26.210Z,26.92
2023-06-15T14:45:54.388Z,26.83
2023-06-15T14:48:22.619Z,26.76
2023-06-15T14:50:50.973Z,26.73
2023-06-15T14:53:19.188Z,26.69
2023-06-15T14:55:47.861Z,26.63
2023-06-15T14:58:16.156Z,26.50
2023-06-15T15:00:44.325Z,26.37
2023-06-15T15:03:12.956Z,26.29
2023-06-15T15:05:41.493Z,26.21
2023-06-15T15:08:11.350Z,26.13
2023-06-15T15:10:39.638Z,26.10
2023-06-15T15:13:07.834Z,26.07
2023-06-15T15:15:36.205Z,25.99
2023-06-15T15:18:05.828Z,25.94
2023-06-15T15:20:34.142Z,25.89
2023-06-15T15:23:02.769Z,25.89
2023-06-15T15:25:31.236Z,25.82
2023-06-15T15:27:59.537Z,25.72
2023-06-15T15:30:28.147Z,25.67
2023-06-15T15:32:56.672Z,25.65
2023-06-15T15:35:26.341Z,25.63
2023-06-15T15:37:55.015Z,25.61
2023-06-15T15:40:23.765Z,25.60
2023-06-15T15:42:52.492Z,25.56
2023-06-15T15:45:21.350Z,25.53
2023-06-15T15:47:49.741Z,25.52
2023-06-15T15:50:19.125Z,25.50
2023-06-15T15:52:47.956Z,25.44
2023-06-15T15:55:16.314Z,25.45
2023-06-15T15:57:45.332Z,25.47
2023-06-15T16:00:14.306Z,25.47
2023-06-15T16:02:43.608Z,25.45
2023-06-15T16:05:13.206Z,25.43
2023-06-15T16:07:44.976Z,25.42
2023-06-15T16:10:13.756Z,25.39
2023-06-15T16:12:42.608Z,25.37
2023-06-15T16:15:11.634Z,25.34
2023-06-15T16:17:39.916Z,25.31
2023-06-15T16:20:09.362Z,25.27
2023-06-15T16:22:37.958Z,25.23
2023-06-15T16:25:06.381Z,25.24
2023-06-15T16:27:34.503Z,25.26
2023-06-15T16:30:02.758Z,25.24
2023-06-15T16:32:30.951Z,25.19
2023-06-15T16:35:04.311Z,25.13
2023-06-15T16:37:35.216Z,25.10
2023-06-15T16:40:07.033Z,25.10
2023-06-15T16:42:35.225Z,25.09
2023-06-15T16:45:05.476Z,25.10
2023-06-15T16:47:33.693Z,25.05
2023-06-15T16:50:02.034Z,25.01
2023-06-15T16:52:30.468Z,24.97
2023-06-15T16:54:58.563Z,24.95
2023-06-15T16:57:26.707Z,24.97
2023-06-15T16:59:54.853Z,24.93
2023-06-15T17:02:23.146Z,24.94
2023-06-15T17:04:51.678Z,24.95
2023-06-15T17:07:20.123Z,24.95
2023-06-15T17:09:48.284Z,24.96
2023-06-15T17:12:16.581Z,24.96
2023-06-15T17:14:44.904Z,24.98
2023-06-15T17:17:13.002Z,24.98
2023-06-15T17:19:41.345Z,24.95
2023-06-15T17:22:09.490Z,24.90
2023-06-15T17:24:37.726Z,24.89
2023-06-15T17:27:06.236Z,24.84
2023-06-15T17:29:34.634Z,24.80
2023-06-15T17:32:02.817Z,24.78
2023-06-15T17:34:30.937Z,24.75
2023-06-15T17:36:59.115Z,24.77
2023-06-15T17:39:27.185Z,24.72
2023-06-15T17:41:55.282Z,24.70
2023-06-15T17:44:23.350Z,24.70
2023-06-15T17:46:53.137Z,24.68
2023-06-15T17:49:21.264Z,24.66
2023-06-15T17:51:49.421Z,24.63
2023-06-15T17:54:17.686Z,24.60
2023-06-15T17:56:45.768Z,24.57
2023-06-15T17:59:13.781Z,24.50
2023-06-15T18:01:41.845Z,24.46
2023-06-15T18:04:10.105Z,24.42
2023-06-15T18:06:38.259Z,24.41
2023-06-15T18:09:06.628Z,24.40
2023-06-15T18:11:35.177Z,24.35
2023-06-15T18:14:03.348Z,24.34
2023-06-15T18:16:31.480Z,24.33
2023-06-15T18:18:59.504Z,24.28
2023-06-15T18:21:27.494Z,24.25
2023-06-15T18:23:55.619Z,24.20
2023-06-15T18:26:29.354Z,24.17
2023-06-15T18:28:57.791Z,24.16
2023-06-15T18:31:25.987Z,24.13
2023-06-15T18:33:54.146Z,24.10
2023-06-15T18:36:22.310Z,24.05
2023-06-15T18:38:50.392Z,24.03
2023-06-15T18:41:18.672Z,24.06
2023-06-15T18:43:46.789Z,24.08
2023-06-15T18:46:16.402Z,24.07
2023-06-15T18:48:44.685Z,24.07
2023-06-15T18:51:12.857Z,24.07
2023-06-15T18:53:40.899Z,24.05
2023-06-15T18:56:09.068Z,24.00
2023-06-15T18:58:37.860Z,23.93
2023-06-15T19:01:06.151Z,23.87
2023-06-15T19:03:34.600Z,23.80
2023-06-15T19:06:02.862Z,23.72
2023-06-15T19:08:30.909Z,23.64
2023-06-15T19:10:59.630Z,23.55
2023-06-15T19:13:34.470Z,23.47
2023-06-15T19:16:02.793Z,23.39
2023-06-15T19:18:31.016Z,23.32
2023-06-15T19:21:01.308Z,23.25
2023-06-15T19:23:29.400Z,23.19
2023-06-15T19:25:57.588Z,23.13
2023-06-15T19:28:26.019Z,23.07
2023-06-15T19:30:54.159Z,22.96
2023-06-15T19:33:22.242Z,22.91
2023-06-15T19:35:52.124Z,22.89
2023-06-15T19:38:20.244Z,22.83
2023-06-15T19:40:48.401Z,22.77
2023-06-15T19:43:16.514Z,22.74
2023-06-15T19:45:44.908Z,22.75
2023-06-15T19:48:14.034Z,22.69
2023-06-15T19:50:42.182Z,22.69
2023-06-15T19:53:10.421Z,22.66
2023-06-15T19:55:38.583Z,22.65
2023-06-15T19:58:06.744Z,22.62
2023-06-15T20:00:34.916Z,22.59
2023-06-15T20:03:03.264Z,22.54
2023-06-15T20:05:31.717Z,22.47
2023-06-15T20:07:59.888Z,22.43
2023-06-15T20:10:28.094Z,22.40
2023-06-15T20:12:56.203Z,22.33
2023-06-15T20:15:24.346Z,22.28
2023-06-15T20:17:52.528Z,22.21
2023-06-15T20:20:20.797Z,22.19
2023-06-15T20:22:49.031Z,22.16
2023-06-15T20:25:17.098Z,22.17
2023-06-15T20:27:46.801Z,22.15
2023-06-15T20:30:15.200Z,22.11
2023-06-15T20:32:43.554Z,22.08
2023-06-15T20:35:11.804Z,22.07
2023-06-15T20:37:40.885Z,22.05
2023-06-15T20:40:10.155Z,22.00
2023-06-15T20:42:38.373Z,21.95
2023-06-15T20:45:06.830Z,21.95
2023-06-15T20:47:34.925Z,21.94
2023-06-15T20:50:03.597Z,21.91
2023-06-15T20:52:32.571Z,21.90
2023-06-15T20:55:00.771Z,21.90
2023-06-15T20:57:28.964Z,21.87
2023-06-15T20:59:57.085Z,21.86
2023-06-15T21:04:57.844Z,21.81
2023-06-15T21:07:25.842Z,21.79
2023-06-15T21:09:53.891Z,21.76
2023-06-15T21:12:21.975Z,21.70
2023-06-15T21:14:49.976Z,21.70
2023-06-15T21:17:18.205Z,21.67
2023-06-15T21:19:46.186Z,21.65
2023-06-15T21:22:14.250Z,21.64
2023-06-15T21:24:42.233Z,21.62
2023-06-15T21:27:10.222Z,21.61
2023-06-15T21:29:38.308Z,21.56
2023-06-15T21:32:06.520Z,21.52
2023-06-15T21:34:34.516Z,21.49
2023-06-15T21:37:02.684Z,21.49
2023-06-15T21:39:30.792Z,21.49
2023-06-15T21:41:58.903Z,21.48
2023-06-15T21:44:27.529Z,21.46
2023-06-15T21:46:55.709Z,21.45
2023-06-15T21:49:23.754Z,21.42
2023-06-15T21:51:51.996Z,21.38
2023-06-15T21:54:20.129Z,21.34
2023-06-15T21:56:48.181Z,21.30
2023-06-15T21:59:16.193Z,21.29
2023-06-15T22:01:44.299Z,21.25
2023-06-15T22:04:12.497Z,21.21
2023-06-15T22:06:40.638Z,21.17
2023-06-15T22:09:10.101Z,21.13
2023-06-15T22:11:38.234Z,21.08
2023-06-15T22:14:09.080Z,21.04
2023-06-15T22:16:39.544Z,20.99
2023-06-15T22:19:08.777Z,20.92
2023-06-15T22:21:37.809Z,20.84
2023-06-15T22:24:07.690Z,20.80
2023-06-15T22:26:35.906Z,20.75
2023-06-15T22:29:03.929Z,20.67
2023-06-15T22:31:32.520Z,20.59
2023-06-15T22:34:00.579Z,20.56
2023-06-15T22:36:30.598Z,20.51
2023-06-15T22:38:59.566Z,20.46
2023-06-15T22:41:28.077Z,20.38
2023-06-15T22:43:58.069Z,20.34
2023-06-15T22:46:28.125Z,20.28
2023-06-15T22:49:01.119Z,20.22
2023-06-15T22:51:31.703Z,20.16
2023-06-15T22:54:00.297Z,20.10
2023-06-15T22:56:28.480Z,20.08
2023-06-15T22:58:59.235Z,20.01
2023-06-15T23:01:27.398Z,19.97
2023-06-15T23:03:55.528Z,19.83
2023-06-15T23:06:26.733Z,19.68
2023-06-15T23:08:55.595Z,19.67
2023-06-15T23:11:23.582Z,19.67
2023-06-15T23:13:55.471Z,19.61
2023-06-15T23:16:24.449Z,19.55
2023-06-15T23:18:55.875Z,19.47
2023-06-15T23:21:24.181Z,19.45
2023-06-15T23:26:45.894Z,19.38
2023-06-15T23:29:15.306Z,19.34
2023-06-15T23:31:43.275Z,19.34
2023-06-15T23:34:11.413Z,19.28
2023-06-15T23:36:42.719Z,19.18
2023-06-15T23:39:10.817Z,19.13
2023-06-15T23:41:39.096Z,19.12
2023-06-15T23:44:07.129Z,19.12
2023-06-15T23:46:35.232Z,19.11
2023-06-15T23:49:03.496Z,19.09
2023-06-15T23:51:31.521Z,19.04
2023-06-15T23:53:59.591Z,19.04
2023-06-15T23:56:28.118Z,19.03
2023-06-15T23:58:56.094Z,19.03
